sensor_id;sensor_type;location;lat;lon;timestamp;P1;P2;P0
45112;PMS5003;30873;53.908;27.576;2022-12-31T00:04:29;23;18.6;11.9
45112;PMS5003;30873;53.908;27.576;2022-12-31T00:10:07;24.5;19.1;12.1
45112;PMS5003;30873;53.908;27.576;2022-12-31T00:14:51;24.4;18.7;11
45112;PMS5003;30873;53.908;27.576;2022-12-31T00:19:29;21.2;17.7;10.9
45112;PMS5003;30873;53.908;27.576;2022-12-31T00:24:59;21.6;18.1;11.4
45112;PMS5003;30873;53.908;27.576;2022-12-31T00:29:57;19.6;16.7;10.8
45112;PMS5003;30873;53.908;27.576;2022-12-31T00:35:07;23.5;19;11.9
45112;PMS5003;30873;53.908;27.576;2022-12-31T00:39:35;32;27.7;17.8
45112;PMS5003;30873;53.908;27.576;2022-12-31T00:44:45;26.4;21.9;14.1
45112;PMS5003;30873;53.908;27.576;2022-12-31T00:49:43;24.8;21.2;12.6
45112;PMS5003;30873;53.908;27.576;2022-12-31T00:54:35;22.7;19.1;12.4
45112;PMS5003;30873;53.908;27.576;2022-12-31T01:00:09;25.9;20.8;12.5
45112;PMS5003;30873;53.908;27.576;2022-12-31T01:04:47;23.2;19.3;11.6
45112;PMS5003;30873;53.908;27.576;2022-12-31T01:09:35;23.9;19.4;11.7
45112;PMS5003;30873;53.908;27.576;2022-12-31T01:14:47;24.9;19.1;11.7
45112;PMS5003;30873;53.908;27.576;2022-12-31T01:20:07;25.3;20.5;12.4
45112;PMS5003;30873;53.908;27.576;2022-12-31T01:25:07;26.6;19.7;11.9
45112;PMS5003;30873;53.908;27.576;2022-12-31T01:29:35;25.1;20.2;12.3
45112;PMS5003;30873;53.908;27.576;2022-12-31T01:34:47;25;20.9;12.2
45112;PMS5003;30873;53.908;27.576;2022-12-31T01:39:29;24.8;21.3;12.4
45112;PMS5003;30873;53.908;27.576;2022-12-31T01:45:00;26.9;22.6;13
45112;PMS5003;30873;53.908;27.576;2022-12-31T01:50:09;30;25.7;16
45112;PMS5003;30873;53.908;27.576;2022-12-31T01:54:41;25.7;21.4;12.3
45112;PMS5003;30873;53.908;27.576;2022-12-31T01:59:29;23.4;20.7;11.9
45112;PMS5003;30873;53.908;27.576;2022-12-31T02:04:57;23.6;20.5;11.6
45112;PMS5003;30873;53.908;27.576;2022-12-31T02:09:49;23.9;19.2;11.2
45112;PMS5003;30873;53.908;27.576;2022-12-31T02:15:07;22;18.5;11.2
45112;PMS5003;30873;53.908;27.576;2022-12-31T02:19:37;23.6;19.3;11.1
45112;PMS5003;30873;53.908;27.576;2022-12-31T02:24:31;25.9;21.2;12.1
45112;PMS5003;30873;53.908;27.576;2022-12-31T02:29:52;25.5;21.4;11.7
45112;PMS5003;30873;53.908;27.576;2022-12-31T02:34:40;24.6;20.8;12.6
45112;PMS5003;30873;53.908;27.576;2022-12-31T02:40:08;27;21.4;12
45112;PMS5003;30873;53.908;27.576;2022-12-31T02:44:51;26.8;21.2;11.8
45112;PMS5003;30873;53.908;27.576;2022-12-31T02:49:41;26.3;21.9;12.9
45112;PMS5003;30873;53.908;27.576;2022-12-31T02:55:04;26.6;21.2;12.2
45112;PMS5003;30873;53.908;27.576;2022-12-31T03:00:04;27;23.2;12.8
45112;PMS5003;30873;53.908;27.576;2022-12-31T03:05:01;28.7;24.2;13.6
45112;PMS5003;30873;53.908;27.576;2022-12-31T03:09:39;27.5;22.5;12.7
45112;PMS5003;30873;53.908;27.576;2022-12-31T03:14:29;23.4;20.1;11.8
45112;PMS5003;30873;53.908;27.576;2022-12-31T03:19:49;24.3;21;11.9
45112;PMS5003;30873;53.908;27.576;2022-12-31T03:24:29;27.7;23.4;13.1
45112;PMS5003;30873;53.908;27.576;2022-12-31T03:30:13;25.6;21.3;11.9
45112;PMS5003;30873;53.908;27.576;2022-12-31T03:34:51;25.6;21.3;11.9
45112;PMS5003;30873;53.908;27.576;2022-12-31T03:39:29;27.1;22.7;12.9
45112;PMS5003;30873;53.908;27.576;2022-12-31T03:45:11;36.2;28.9;16.1
45112;PMS5003;30873;53.908;27.576;2022-12-31T03:50:03;36.2;28.9;16.1
45112;PMS5003;30873;53.908;27.576;2022-12-31T03:55:13;42.8;34.1;18.1
45112;PMS5003;30873;53.908;27.576;2022-12-31T03:59:29;42.8;34.1;18.1
45112;PMS5003;30873;53.908;27.576;2022-12-31T04:04:29;43.8;36.7;20
45112;PMS5003;30873;53.908;27.576;2022-12-31T04:09:49;41.3;33.5;19.2
45112;PMS5003;30873;53.908;27.576;2022-12-31T04:14:29;42.4;34.3;19.1
45112;PMS5003;30873;53.908;27.576;2022-12-31T04:20:11;40.7;30.8;18.5
45112;PMS5003;30873;53.908;27.576;2022-12-31T04:24:37;40.7;30.8;18.5
45112;PMS5003;30873;53.908;27.576;2022-12-31T04:29:49;42.3;33.6;18.2
45112;PMS5003;30873;53.908;27.576;2022-12-31T04:35:01;35.7;29;18.5
45112;PMS5003;30873;53.908;27.576;2022-12-31T04:39:59;35.1;29.7;16.5
45112;PMS5003;30873;53.908;27.576;2022-12-31T04:45:09;33.6;28.1;16.7
45112;PMS5003;30873;53.908;27.576;2022-12-31T04:49:39;37.8;30.2;17.4
45112;PMS5003;30873;53.908;27.576;2022-12-31T04:54:49;39.3;32.2;18.9
45112;PMS5003;30873;53.908;27.576;2022-12-31T04:59:47;38;32.4;18
45112;PMS5003;30873;53.908;27.576;2022-12-31T05:04:39;41.3;32.3;18.1
45112;PMS5003;30873;53.908;27.576;2022-12-31T05:10:09;38.2;32.3;17.1
45112;PMS5003;30873;53.908;27.576;2022-12-31T05:14:29;40.3;32.4;19.4
45112;PMS5003;30873;53.908;27.576;2022-12-31T05:19:45;43.3;36.6;21.4
45112;PMS5003;30873;53.908;27.576;2022-12-31T05:24:59;44.4;37;21.4
45112;PMS5003;30873;53.908;27.576;2022-12-31T05:30:01;41.3;35.1;20.8
45112;PMS5003;30873;53.908;27.576;2022-12-31T05:35:09;43.9;35;19.8
45112;PMS5003;30873;53.908;27.576;2022-12-31T05:39:39;34.5;30;17.8
45112;PMS5003;30873;53.908;27.576;2022-12-31T05:44:51;35.6;29.8;17.5
45112;PMS5003;30873;53.908;27.576;2022-12-31T05:49:49;32.3;28.4;17.1
45112;PMS5003;30873;53.908;27.576;2022-12-31T05:54:39;35.7;29.4;16.4
45112;PMS5003;30873;53.908;27.576;2022-12-31T06:00:09;39;31.3;18.2
45112;PMS5003;30873;53.908;27.576;2022-12-31T06:04:51;40.3;33;18.4
45112;PMS5003;30873;53.908;27.576;2022-12-31T06:09:57;38.5;30.8;17.9
45112;PMS5003;30873;53.908;27.576;2022-12-31T06:14:53;34.3;26.9;16.2
45112;PMS5003;30873;53.908;27.576;2022-12-31T06:20:09;31.8;26.8;15.3
45112;PMS5003;30873;53.908;27.576;2022-12-31T06:25:09;32.5;27.3;16.9
45112;PMS5003;30873;53.908;27.576;2022-12-31T06:29:49;37;29.9;16.3
45112;PMS5003;30873;53.908;27.576;2022-12-31T06:34:49;35;29.8;16.7
45112;PMS5003;30873;53.908;27.576;2022-12-31T06:39:47;34.3;28.8;16.1
45112;PMS5003;30873;53.908;27.576;2022-12-31T06:44:39;30;26.2;15.1
45112;PMS5003;30873;53.908;27.576;2022-12-31T06:50:11;32.2;27.5;16.7
45112;PMS5003;30873;53.908;27.576;2022-12-31T06:54:51;32.2;27.5;16.7
45112;PMS5003;30873;53.908;27.576;2022-12-31T06:59:29;33.2;27.5;15.9
45112;PMS5003;30873;53.908;27.576;2022-12-31T07:04:36;31.9;25.2;14.7
45112;PMS5003;30873;53.908;27.576;2022-12-31T07:10:00;26.4;21.9;14.4
45112;PMS5003;30873;53.908;27.576;2022-12-31T07:15:00;32.1;26.2;14.2
45112;PMS5003;30873;53.908;27.576;2022-12-31T07:19:40;31.4;25.4;15.2
45112;PMS5003;30873;53.908;27.576;2022-12-31T07:25:12;31.8;26.3;15.2
45112;PMS5003;30873;53.908;27.576;2022-12-31T07:30:13;30;25.6;14.3
45112;PMS5003;30873;53.908;27.576;2022-12-31T07:34:31;30;25.6;14.3
45112;PMS5003;30873;53.908;27.576;2022-12-31T07:39:31;30.6;25.7;14.5
45112;PMS5003;30873;53.908;27.576;2022-12-31T07:44:53;31.9;26.1;15.4
45112;PMS5003;30873;53.908;27.576;2022-12-31T07:50:10;30.3;24.4;14.8
45112;PMS5003;30873;53.908;27.576;2022-12-31T07:55:11;33.4;28.6;16.6
45112;PMS5003;30873;53.908;27.576;2022-12-31T08:00:04;33.4;28.6;16.6
45112;PMS5003;30873;53.908;27.576;2022-12-31T08:05:05;35.5;28.6;16.6
45112;PMS5003;30873;53.908;27.576;2022-12-31T08:09:38;35.3;30.9;18.5
45112;PMS5003;30873;53.908;27.576;2022-12-31T08:15:10;37.8;29.6;17.5
45112;PMS5003;30873;53.908;27.576;2022-12-31T08:19:59;36.1;28;17.4
45112;PMS5003;30873;53.908;27.576;2022-12-31T08:24:39;37.1;29.9;17.6
45112;PMS5003;30873;53.908;27.576;2022-12-31T08:29:52;36.4;30.4;18.4
45112;PMS5003;30873;53.908;27.576;2022-12-31T08:34:51;38.1;30.6;18
45112;PMS5003;30873;53.908;27.576;2022-12-31T08:40:12;35.5;29.8;17.2
45112;PMS5003;30873;53.908;27.576;2022-12-31T08:45:11;35.8;30.1;18.5
45112;PMS5003;30873;53.908;27.576;2022-12-31T08:50:01;32.9;27.1;17.2
45112;PMS5003;30873;53.908;27.576;2022-12-31T08:54:59;34.7;29;17.5
45112;PMS5003;30873;53.908;27.576;2022-12-31T08:59:41;36.1;31.3;18.3
45112;PMS5003;30873;53.908;27.576;2022-12-31T09:05:13;38;31.9;18
45112;PMS5003;30873;53.908;27.576;2022-12-31T09:09:58;38;31.9;18
45112;PMS5003;30873;53.908;27.576;2022-12-31T09:14:40;35.5;30.2;17.8
45112;PMS5003;30873;53.908;27.576;2022-12-31T09:19:47;38.8;32.2;19.2
45112;PMS5003;30873;53.908;27.576;2022-12-31T09:24:49;39.2;31.9;18.4
45112;PMS5003;30873;53.908;27.576;2022-12-31T09:30:12;39;31.8;19.4
45112;PMS5003;30873;53.908;27.576;2022-12-31T09:35:00;39;31.8;19.4
45112;PMS5003;30873;53.908;27.576;2022-12-31T09:39:59;36.5;31.4;18.2
45112;PMS5003;30873;53.908;27.576;2022-12-31T09:45:12;38.1;31.8;19.3
45112;PMS5003;30873;53.908;27.576;2022-12-31T09:49:37;36.9;29.7;18.1
45112;PMS5003;30873;53.908;27.576;2022-12-31T09:55:22;36.3;31.3;18.8
45112;PMS5003;30873;53.908;27.576;2022-12-31T10:00:12;38.4;31.3;18.6
45112;PMS5003;30873;53.908;27.576;2022-12-31T10:04:41;38.4;31.3;18.6
45112;PMS5003;30873;53.908;27.576;2022-12-31T10:09:53;36.8;30.5;18.5
45112;PMS5003;30873;53.908;27.576;2022-12-31T10:14:57;37.8;31;18.1
45112;PMS5003;30873;53.908;27.576;2022-12-31T10:20:15;38.2;30.7;19
45112;PMS5003;30873;53.908;27.576;2022-12-31T10:25:20;38.3;32.1;18.9
45112;PMS5003;30873;53.908;27.576;2022-12-31T10:30:02;38.3;32.1;18.9
45112;PMS5003;30873;53.908;27.576;2022-12-31T10:34:54;39.8;32.3;19
45112;PMS5003;30873;53.908;27.576;2022-12-31T10:39:42;40.7;34.4;20.3
45112;PMS5003;30873;53.908;27.576;2022-12-31T10:45:29;38.4;31.7;19.1
45112;PMS5003;30873;53.908;27.576;2022-12-31T10:50:15;39.6;31.5;18.7
45112;PMS5003;30873;53.908;27.576;2022-12-31T10:54:43;39.6;31.5;18.7
45112;PMS5003;30873;53.908;27.576;2022-12-31T11:00:07;40.9;32.8;19.6
45112;PMS5003;30873;53.908;27.576;2022-12-31T11:04:54;39.4;32.7;19
45112;PMS5003;30873;53.908;27.576;2022-12-31T11:11:20;43.6;36.3;21.9
45112;PMS5003;30873;53.908;27.576;2022-12-31T11:15:13;37;32.6;19.6
45112;PMS5003;30873;53.908;27.576;2022-12-31T11:21:15;37;32.6;19.6
45112;PMS5003;30873;53.908;27.576;2022-12-31T11:25:06;38.9;34;20.1
45112;PMS5003;30873;53.908;27.576;2022-12-31T11:29:32;40.3;33.3;20.4
45112;PMS5003;30873;53.908;27.576;2022-12-31T11:35:17;41.6;34.3;20.4
45112;PMS5003;30873;53.908;27.576;2022-12-31T11:40:11;41.6;34.3;20.4
45112;PMS5003;30873;53.908;27.576;2022-12-31T11:44:52;42.9;35.6;21.1
45112;PMS5003;30873;53.908;27.576;2022-12-31T11:49:33;43.8;37.1;21.6
45112;PMS5003;30873;53.908;27.576;2022-12-31T11:55:46;46.3;39.2;23.4
45112;PMS5003;30873;53.908;27.576;2022-12-31T12:00:12;48.8;40.7;24.4
45112;PMS5003;30873;53.908;27.576;2022-12-31T12:04:37;48.8;40.7;24.4
45112;PMS5003;30873;53.908;27.576;2022-12-31T12:10:02;50.3;41.2;25.1
45112;PMS5003;30873;53.908;27.576;2022-12-31T12:15:05;54;42.7;25.9
45112;PMS5003;30873;53.908;27.576;2022-12-31T12:19:40;51.4;41.8;25.5
45112;PMS5003;30873;53.908;27.576;2022-12-31T12:25:15;49.6;40.7;25.1
45112;PMS5003;30873;53.908;27.576;2022-12-31T12:30:09;49.6;40.7;25.1
45112;PMS5003;30873;53.908;27.576;2022-12-31T12:34:39;47.9;39.8;25.1
45112;PMS5003;30873;53.908;27.576;2022-12-31T12:40:03;49.8;41.1;24.3
45112;PMS5003;30873;53.908;27.576;2022-12-31T12:44:59;50.9;39.9;25.1
45112;PMS5003;30873;53.908;27.576;2022-12-31T12:50:12;46.8;39.8;23.5
45112;PMS5003;30873;53.908;27.576;2022-12-31T12:54:32;46.8;39.8;23.5
45112;PMS5003;30873;53.908;27.576;2022-12-31T13:00:06;47.2;40.1;23.5
45112;PMS5003;30873;53.908;27.576;2022-12-31T13:05:05;44.9;39.4;23.8
45112;PMS5003;30873;53.908;27.576;2022-12-31T13:09:33;42.2;35.5;21.2
45112;PMS5003;30873;53.908;27.576;2022-12-31T13:14:51;40.5;36.1;20.8
45112;PMS5003;30873;53.908;27.576;2022-12-31T13:20:12;40.3;34.1;20.4
45112;PMS5003;30873;53.908;27.576;2022-12-31T13:24:36;40.3;34.1;20.4
45112;PMS5003;30873;53.908;27.576;2022-12-31T13:29:29;37.6;31.4;19
45112;PMS5003;30873;53.908;27.576;2022-12-31T13:34:30;39.6;33.1;19.4
45112;PMS5003;30873;53.908;27.576;2022-12-31T13:40:16;40.9;35.6;20.1
45112;PMS5003;30873;53.908;27.576;2022-12-31T13:45:09;40.9;35.6;20.1
45112;PMS5003;30873;53.908;27.576;2022-12-31T13:50:02;41.2;32.8;19
45112;PMS5003;30873;53.908;27.576;2022-12-31T13:55:02;43.8;34;19.4
45112;PMS5003;30873;53.908;27.576;2022-12-31T13:59:42;38.9;33.5;21.2
45112;PMS5003;30873;53.908;27.576;2022-12-31T14:05:13;40.7;33.7;20
45112;PMS5003;30873;53.908;27.576;2022-12-31T14:10:01;40.7;33.7;20
45112;PMS5003;30873;53.908;27.576;2022-12-31T14:14:32;41.6;35.1;20.8
45112;PMS5003;30873;53.908;27.576;2022-12-31T14:19:34;43.9;36.4;21.7
45112;PMS5003;30873;53.908;27.576;2022-12-31T14:24:32;41.6;35.5;20.7
45112;PMS5003;30873;53.908;27.576;2022-12-31T14:30:12;45.8;37.2;22.8
45112;PMS5003;30873;53.908;27.576;2022-12-31T14:34:40;44;37.5;22
45112;PMS5003;30873;53.908;27.576;2022-12-31T14:40:05;45.2;38.7;23.2
45112;PMS5003;30873;53.908;27.576;2022-12-31T14:45:03;50.7;40.4;23.4
45112;PMS5003;30873;53.908;27.576;2022-12-31T14:49:32;48.5;39.9;22.6
45112;PMS5003;30873;53.908;27.576;2022-12-31T14:55:20;49.8;40.3;23.7
45112;PMS5003;30873;53.908;27.576;2022-12-31T14:59:51;49.8;40.3;23.7
45112;PMS5003;30873;53.908;27.576;2022-12-31T15:04:30;53.8;42.2;24.1
45112;PMS5003;30873;53.908;27.576;2022-12-31T15:09:53;53.8;42.5;24.9
45112;PMS5003;30873;53.908;27.576;2022-12-31T15:14:52;53.3;42.2;24.4
45112;PMS5003;30873;53.908;27.576;2022-12-31T15:20:36;53.1;41.3;24.3
45112;PMS5003;30873;53.908;27.576;2022-12-31T15:24:41;46.6;40;24.2
45112;PMS5003;30873;53.908;27.576;2022-12-31T15:30:02;51.8;42.8;25.7
45112;PMS5003;30873;53.908;27.576;2022-12-31T15:35:19;52;42;25.6
45112;PMS5003;30873;53.908;27.576;2022-12-31T15:39:38;51.9;42;24.8
45112;PMS5003;30873;53.908;27.576;2022-12-31T15:45:13;52.5;42.3;24.5
45112;PMS5003;30873;53.908;27.576;2022-12-31T15:50:04;52.5;42.3;24.5
45112;PMS5003;30873;53.908;27.576;2022-12-31T15:54:49;52.5;40.7;22.7
45112;PMS5003;30873;53.908;27.576;2022-12-31T15:59:47;48.5;39.2;22.5
45112;PMS5003;30873;53.908;27.576;2022-12-31T16:05:19;49.1;39.6;23.7
45112;PMS5003;30873;53.908;27.576;2022-12-31T16:10:14;49.4;40.1;23.9
45112;PMS5003;30873;53.908;27.576;2022-12-31T16:14:30;49.4;40.1;23.9
45112;PMS5003;30873;53.908;27.576;2022-12-31T16:19:51;52.1;41.9;24.5
45112;PMS5003;30873;53.908;27.576;2022-12-31T16:24:37;54.2;43.6;26.3
45112;PMS5003;30873;53.908;27.576;2022-12-31T16:29:29;55.4;43.8;26.3
45112;PMS5003;30873;53.908;27.576;2022-12-31T16:35:18;58.5;45.5;27.4
45112;PMS5003;30873;53.908;27.576;2022-12-31T16:40:18;51.9;41;25
45112;PMS5003;30873;53.908;27.576;2022-12-31T16:44:50;53.2;42.4;25.2
45112;PMS5003;30873;53.908;27.576;2022-12-31T16:49:58;50.7;40.6;23.7
45112;PMS5003;30873;53.908;27.576;2022-12-31T16:55:14;43.5;35;20.9
45112;PMS5003;30873;53.908;27.576;2022-12-31T17:00:13;42;35.1;20.2
45112;PMS5003;30873;53.908;27.576;2022-12-31T17:04:29;42;35.1;20.2
45112;PMS5003;30873;53.908;27.576;2022-12-31T17:09:30;42.2;34.5;21
45112;PMS5003;30873;53.908;27.576;2022-12-31T17:14:49;44.4;35.1;20.9
45112;PMS5003;30873;53.908;27.576;2022-12-31T17:19:32;43.5;35.7;22
45112;PMS5003;30873;53.908;27.576;2022-12-31T17:25:17;43.6;37.9;22.7
45112;PMS5003;30873;53.908;27.576;2022-12-31T17:30:19;49.7;41;25.5
45112;PMS5003;30873;53.908;27.576;2022-12-31T17:34:47;42.5;35.1;20.8
45112;PMS5003;30873;53.908;27.576;2022-12-31T17:39:52;44;36.1;22.7
45112;PMS5003;30873;53.908;27.576;2022-12-31T17:45:15;40.2;36.1;22.4
45112;PMS5003;30873;53.908;27.576;2022-12-31T17:50:15;45.1;37.2;23.1
45112;PMS5003;30873;53.908;27.576;2022-12-31T17:54:39;45.1;37.2;23.1
45112;PMS5003;30873;53.908;27.576;2022-12-31T17:59:49;48.5;40.4;24.2
45112;PMS5003;30873;53.908;27.576;2022-12-31T18:04:49;42.2;36.2;22
45112;PMS5003;30873;53.908;27.576;2022-12-31T18:09:47;37.6;31.7;18.9
45112;PMS5003;30873;53.908;27.576;2022-12-31T18:15:01;32.7;28.7;17.5
45112;PMS5003;30873;53.908;27.576;2022-12-31T18:20:03;29;24.6;15.3
45112;PMS5003;30873;53.908;27.576;2022-12-31T18:24:52;28.2;23.4;14.6
45112;PMS5003;30873;53.908;27.576;2022-12-31T18:29:51;25.6;21.3;12.6
45112;PMS5003;30873;53.908;27.576;2022-12-31T18:35:16;20.4;17.5;11.4
45112;PMS5003;30873;53.908;27.576;2022-12-31T18:40:10;20.4;17.5;11.4
45112;PMS5003;30873;53.908;27.576;2022-12-31T18:44:29;20.6;17.3;11.9
45112;PMS5003;30873;53.908;27.576;2022-12-31T18:49:55;22;18.6;11.8
45112;PMS5003;30873;53.908;27.576;2022-12-31T18:54:49;21.5;18.4;12.1
45112;PMS5003;30873;53.908;27.576;2022-12-31T18:59:39;23;18.5;12
45112;PMS5003;30873;53.908;27.576;2022-12-31T19:04:59;23.7;20;12.3
45112;PMS5003;30873;53.908;27.576;2022-12-31T19:10:13;22.5;19;12.6
45112;PMS5003;30873;53.908;27.576;2022-12-31T19:14:49;22.5;19;12.6
45112;PMS5003;30873;53.908;27.576;2022-12-31T19:19:47;24.9;20.3;12.1
45112;PMS5003;30873;53.908;27.576;2022-12-31T19:25:14;23;20.1;12.6
45112;PMS5003;30873;53.908;27.576;2022-12-31T19:30:14;24.2;22.3;12.8
45112;PMS5003;30873;53.908;27.576;2022-12-31T19:34:39;24.2;22.3;12.8
45112;PMS5003;30873;53.908;27.576;2022-12-31T19:39:39;25.5;21.3;13.2
45112;PMS5003;30873;53.908;27.576;2022-12-31T19:44:49;24.3;21.8;13.3
45112;PMS5003;30873;53.908;27.576;2022-12-31T19:49:29;26.1;23.3;13.7
45112;PMS5003;30873;53.908;27.576;2022-12-31T19:55:03;24.7;20.9;12.6
45112;PMS5003;30873;53.908;27.576;2022-12-31T20:00:12;27.7;23.7;14.3
45112;PMS5003;30873;53.908;27.576;2022-12-31T20:04:49;27.7;23.7;14.3
45112;PMS5003;30873;53.908;27.576;2022-12-31T20:09:29;28.7;23.3;14.7
45112;PMS5003;30873;53.908;27.576;2022-12-31T20:15:03;27.1;23.3;14.4
45112;PMS5003;30873;53.908;27.576;2022-12-31T20:20:03;26.6;23.6;14.3
45112;PMS5003;30873;53.908;27.576;2022-12-31T20:24:29;27.9;24.2;14.1
45112;PMS5003;30873;53.908;27.576;2022-12-31T20:29:29;27.1;22.6;13.2
45112;PMS5003;30873;53.908;27.576;2022-12-31T20:35:01;26.8;23.6;14.5
45112;PMS5003;30873;53.908;27.576;2022-12-31T20:39:39;27.2;24.7;13.6
45112;PMS5003;30873;53.908;27.576;2022-12-31T20:44:59;27.3;23.8;14.4
45112;PMS5003;30873;53.908;27.576;2022-12-31T20:50:09;27.5;23.7;14.5
45112;PMS5003;30873;53.908;27.576;2022-12-31T20:55:03;28;24.3;15
45112;PMS5003;30873;53.908;27.576;2022-12-31T20:59:29;24;20;12
45112;PMS5003;30873;53.908;27.576;2022-12-31T21:04:59;24.8;21.4;13.8
45112;PMS5003;30873;53.908;27.576;2022-12-31T21:09:59;27.8;24.4;13.9
45112;PMS5003;30873;53.908;27.576;2022-12-31T21:14:29;25.3;22.2;13.7
45112;PMS5003;30873;53.908;27.576;2022-12-31T21:19:47;25.2;21.6;12.8
45112;PMS5003;30873;53.908;27.576;2022-12-31T21:25:03;26.8;22.8;14.3
45112;PMS5003;30873;53.908;27.576;2022-12-31T21:29:39;33.7;26.8;15.4
45112;PMS5003;30873;53.908;27.576;2022-12-31T21:35:13;31.8;28.4;17.7
45112;PMS5003;30873;53.908;27.576;2022-12-31T21:40:13;35.1;29.5;17
45112;PMS5003;30873;53.908;27.576;2022-12-31T21:44:29;35.1;29.5;17
45112;PMS5003;30873;53.908;27.576;2022-12-31T21:49:39;35.8;29.5;18
45112;PMS5003;30873;53.908;27.576;2022-12-31T21:55:02;37.7;30.9;17.6
45112;PMS5003;30873;53.908;27.576;2022-12-31T21:59:59;35;29.8;18.2
45112;PMS5003;30873;53.908;27.576;2022-12-31T22:04:49;35.8;30;17.3
45112;PMS5003;30873;53.908;27.576;2022-12-31T22:10:07;34.3;29.9;17.9
45112;PMS5003;30873;53.908;27.576;2022-12-31T22:15:03;35.8;30.7;18.7
45112;PMS5003;30873;53.908;27.576;2022-12-31T22:19:51;38.1;31.4;19.5
45112;PMS5003;30873;53.908;27.576;2022-12-31T22:25:13;37.2;32.2;19.1
45112;PMS5003;30873;53.908;27.576;2022-12-31T22:30:13;38.5;32.2;20.3
45112;PMS5003;30873;53.908;27.576;2022-12-31T22:34:49;38.5;32.2;20.3
45112;PMS5003;30873;53.908;27.576;2022-12-31T22:39:57;34.2;29.2;18.2
45112;PMS5003;30873;53.908;27.576;2022-12-31T22:44:49;32.6;28.6;16.7
45112;PMS5003;30873;53.908;27.576;2022-12-31T22:50:04;32.6;28.6;16.7
45112;PMS5003;30873;53.908;27.576;2022-12-31T22:54:29;37.3;32.8;19.2
45112;PMS5003;30873;53.908;27.576;2022-12-31T22:59:43;37.3;32.8;19.2
45112;PMS5003;30873;53.908;27.576;2022-12-31T23:04:57;37.3;32.8;19.2
45112;PMS5003;30873;53.908;27.576;2022-12-31T23:09:29;32.6;29.3;18.7
45112;PMS5003;30873;53.908;27.576;2022-12-31T23:15:08;35;25;16
45112;PMS5003;30873;53.908;27.576;2022-12-31T23:24:45;33.3;28.3;16
45112;PMS5003;30873;53.908;27.576;2022-12-31T23:29:29;30;26;16.7
45112;PMS5003;30873;53.908;27.576;2022-12-31T23:34:59;32.2;27;16.7
45112;PMS5003;30873;53.908;27.576;2022-12-31T23:39:55;33.6;29.9;17.9
45112;PMS5003;30873;53.908;27.576;2022-12-31T23:44:35;33.6;29.9;18
45112;PMS5003;30873;53.908;27.576;2022-12-31T23:49:41;31;29.5;15.3
45112;PMS5003;30873;53.908;27.576;2022-12-31T23:54:47;31;23.5;17
45112;PMS5003;30873;53.908;27.576;2022-12-31T23:59:29;32;29;17
